Time;durP1;ratioP1;P1;durP2;ratioP2;P2;SDS_P1;SDS_P2;PMS_P1;PMS_P2;Temp;Humidity;BMP_temperature;BMP_pressure;BME280_temperature;BME280_humidity;BME280_pressure;Samples;Min_cycle;Max_cycle;Signal;HPM_P1;HPM_P2
2023/09/17 00:02:20;;;;;;;27.55;18.90;;;;;;;17.59;100.00;101173.13;6198102;23;20009;-71
2023/09/17 00:04:45;;;;;;;28.83;19.52;;;;;;;17.59;100.00;101173.13;6197850;23;20001;-70
2023/09/17 00:07:11;;;;;;;26.95;18.65;;;;;;;17.58;100.00;101165.97;6197445;23;20000;-70
2023/09/17 00:09:36;;;;;;;27.83;18.67;;;;;;;17.55;100.00;101166.25;6197131;23;20009;-70
2023/09/17 00:12:01;;;;;;;32.88;19.63;;;;;;;17.54;100.00;101164.53;6195032;23;20072;-70
2023/09/17 00:14:27;;;;;;;27.58;17.40;;;;;;;17.52;100.00;101155.69;6198875;23;20005;-71
2023/09/17 00:16:52;;;;;;;27.38;18.15;;;;;;;17.53;100.00;101160.97;6199179;23;20056;-70
2023/09/17 00:19:19;;;;;;;26.17;15.93;;;;;;;17.52;100.00;101158.41;6198631;23;20033;-70
2023/09/17 00:21:44;;;;;;;27.45;17.23;;;;;;;17.49;100.00;101164.16;6197879;23;20005;-70
2023/09/17 00:24:10;;;;;;;25.75;16.63;;;;;;;17.48;100.00;101171.44;6197178;23;20005;-70
2023/09/17 00:26:35;;;;;;;31.13;17.50;;;;;;;17.46;100.00;101159.88;6200600;23;20057;-70
2023/09/17 00:29:00;;;;;;;28.70;15.95;;;;;;;17.45;100.00;101167.16;6200399;23;20064;-70
2023/09/17 00:31:27;;;;;;;25.85;16.48;;;;;;;17.40;100.00;101161.31;6196592;23;20066;-70
2023/09/17 00:33:52;;;;;;;25.30;14.80;;;;;;;17.37;100.00;101160.78;6198340;23;20008;-70
2023/09/17 00:36:19;;;;;;;25.70;15.63;;;;;;;17.33;100.00;101164.78;6199501;23;20001;-70
2023/09/17 00:38:44;;;;;;;28.27;15.27;;;;;;;17.27;100.00;101166.25;6191588;23;20005;-72
2023/09/17 00:41:09;;;;;;;25.40;15.10;;;;;;;17.26;100.00;101159.09;6186494;23;20001;-72
2023/09/17 00:43:35;;;;;;;26.52;15.05;;;;;;;17.23;100.00;101164.81;6187342;23;20008;-72
2023/09/17 00:46:01;;;;;;;23.83;14.18;;;;;;;17.20;100.00;101159.69;6186389;23;20012;-72
2023/09/17 00:48:27;;;;;;;26.63;14.82;;;;;;;17.15;100.00;101164.72;6186176;23;20001;-72
2023/09/17 00:50:53;;;;;;;23.40;13.48;;;;;;;17.14;100.00;101154.84;6186160;23;20083;-72
2023/09/17 00:53:19;;;;;;;25.92;14.85;;;;;;;17.11;100.00;101150.56;6182951;23;20453;-72
2023/09/17 00:55:44;;;;;;;24.77;15.70;;;;;;;17.05;100.00;101156.59;6185648;23;20088;-72
2023/09/17 00:58:10;;;;;;;24.08;13.40;;;;;;;17.03;100.00;101150.44;6186787;23;20011;-72
2023/09/17 01:00:38;;;;;;;25.88;14.07;;;;;;;17.01;100.00;101153.28;6186369;23;19997;-72
2023/09/17 01:03:05;;;;;;;24.77;14.87;;;;;;;16.99;100.00;101143.63;6186143;23;20017;-72
2023/09/17 01:05:38;;;;;;;26.15;14.85;;;;;;;16.96;100.00;101147.47;6186273;23;20335;-72
2023/09/17 01:08:07;;;;;;;24.58;14.15;;;;;;;16.95;100.00;101143.03;6186313;23;20076;-72
2023/09/17 01:10:40;;;;;;;23.80;14.43;;;;;;;16.92;100.00;101143.34;6185317;23;20338;-72
2023/09/17 01:13:06;;;;;;;29.13;14.60;;;;;;;16.89;100.00;101138.19;6185215;23;20446;-72
2023/09/17 01:15:34;;;;;;;25.95;14.70;;;;;;;16.85;100.00;101142.16;6185407;23;20035;-72
2023/09/17 01:18:01;;;;;;;24.92;14.90;;;;;;;16.84;100.00;101138.59;6184525;23;20015;-72
2023/09/17 01:20:30;;;;;;;26.23;15.55;;;;;;;16.83;100.00;101136.03;6185580;23;20009;-72
2023/09/17 01:23:02;;;;;;;28.35;15.13;;;;;;;16.81;100.00;101136.19;6185253;23;20005;-72
2023/09/17 01:25:35;;;;;;;26.15;15.57;;;;;;;16.76;100.00;101128.50;6185492;23;20102;-72
2023/09/17 01:28:02;;;;;;;27.33;16.35;;;;;;;16.72;100.00;101124.34;6185345;23;20476;-72
2023/09/17 01:30:27;;;;;;;25.88;16.23;;;;;;;16.69;100.00;101121.06;6186298;23;20015;-72
2023/09/17 01:32:53;;;;;;;26.17;15.95;;;;;;;16.64;100.00;101124.22;6182420;23;20008;-72
2023/09/17 01:35:19;;;;;;;28.70;16.48;;;;;;;16.57;100.00;101117.66;6186159;23;20028;-72
2023/09/17 01:37:54;;;;;;;28.25;16.13;;;;;;;16.54;100.00;101117.94;6184812;23;20060;-72
2023/09/17 01:40:23;;;;;;;24.95;15.98;;;;;;;16.50;100.00;101114.69;6185236;23;20008;-72
2023/09/17 01:42:49;;;;;;;25.67;15.10;;;;;;;16.49;100.00;101115.69;6185252;23;20032;-72
2023/09/17 01:45:16;;;;;;;27.90;15.50;;;;;;;16.45;100.00;101110.69;6185895;23;20236;-72
2023/09/17 01:47:44;;;;;;;30.20;16.42;;;;;;;16.41;100.00;101100.13;6186019;23;20576;-72
2023/09/17 01:50:11;;;;;;;25.58;16.20;;;;;;;16.39;100.00;101096.69;6181637;23;20020;-73
2023/09/17 01:52:37;;;;;;;24.50;14.75;;;;;;;16.36;100.00;101099.69;6182462;23;20012;-73
2023/09/17 01:55:03;;;;;;;25.90;15.82;;;;;;;16.34;100.00;101096.28;6181791;23;20016;-73
2023/09/17 01:57:29;;;;;;;26.42;16.15;;;;;;;16.29;100.00;101081.44;6182253;23;20342;-73
2023/09/17 01:59:55;;;;;;;24.83;15.20;;;;;;;16.26;100.00;101088.00;6183843;23;19997;-73
2023/09/17 02:02:21;;;;;;;24.25;14.65;;;;;;;16.27;100.00;101083.41;6183226;23;20009;-73
2023/09/17 02:04:47;;;;;;;27.08;16.40;;;;;;;16.23;100.00;101085.56;6182350;23;20389;-73
2023/09/17 02:07:15;;;;;;;25.55;15.23;;;;;;;16.21;100.00;101096.56;6181784;23;20040;-73
2023/09/17 02:09:40;;;;;;;27.75;16.10;;;;;;;16.21;100.00;101093.00;6183216;23;20387;-73
2023/09/17 02:12:05;;;;;;;24.90;15.63;;;;;;;16.20;100.00;101089.41;6183058;23;20013;-73
2023/09/17 02:14:31;;;;;;;25.88;15.43;;;;;;;16.19;100.00;101103.13;6183704;23;20001;-73
2023/09/17 02:16:56;;;;;;;24.63;15.15;;;;;;;16.17;100.00;101105.13;6182182;23;20150;-73
2023/09/17 02:19:22;;;;;;;26.50;16.27;;;;;;;16.18;100.00;101107.69;6184122;23;20012;-73
2023/09/17 02:21:47;;;;;;;25.80;15.98;;;;;;;16.19;100.00;101103.13;6182515;23;20032;-73
2023/09/17 02:24:13;;;;;;;27.42;16.02;;;;;;;16.18;100.00;101091.44;6183537;23;20001;-73
2023/09/17 02:26:38;;;;;;;26.30;17.40;;;;;;;16.19;100.00;101092.28;6183889;23;20008;-73
2023/09/17 02:29:04;;;;;;;27.50;16.27;;;;;;;16.20;100.00;101083.16;6182024;23;20040;-73
2023/09/17 02:31:29;;;;;;;25.92;16.08;;;;;;;16.20;100.00;101077.72;6183216;23;20013;-73
2023/09/17 02:33:54;;;;;;;27.88;16.98;;;;;;;16.20;100.00;101075.84;6183721;23;20059;-73
2023/09/17 02:36:20;;;;;;;29.88;18.05;;;;;;;16.21;100.00;101071.31;6183782;23;20033;-73
2023/09/17 02:38:45;;;;;;;28.70;16.38;;;;;;;16.20;100.00;101075.84;6182069;23;20107;-73
2023/09/17 02:41:10;;;;;;;28.55;17.63;;;;;;;16.20;100.00;101064.16;6182389;23;20334;-73
2023/09/17 02:43:36;;;;;;;28.20;17.95;;;;;;;16.20;100.00;101062.31;6183183;23;20338;-73
2023/09/17 02:46:03;;;;;;;29.38;19.13;;;;;;;16.20;100.00;101067.72;6183846;23;20005;-73
2023/09/17 02:48:32;;;;;;;30.60;19.65;;;;;;;16.20;100.00;101059.59;6183507;23;20212;-73
2023/09/17 02:50:57;;;;;;;28.13;18.33;;;;;;;16.21;100.00;101058.59;6182235;23;20450;-73
2023/09/17 02:53:23;;;;;;;28.75;17.73;;;;;;;16.22;100.00;101054.91;6183120;23;20009;-73
2023/09/17 02:55:48;;;;;;;30.25;17.67;;;;;;;16.20;100.00;101061.47;6183749;23;20008;-73
2023/09/17 02:58:14;;;;;;;29.77;17.55;;;;;;;16.20;100.00;101056.03;6185598;23;20012;-71
2023/09/17 03:00:40;;;;;;;30.48;19.10;;;;;;;16.17;100.00;101059.03;6183974;23;20427;-72
2023/09/17 03:03:06;;;;;;;28.20;18.13;;;;;;;16.15;100.00;101056.47;6184388;23;20004;-72
2023/09/17 03:05:31;;;;;;;29.08;18.23;;;;;;;16.12;100.00;101061.31;6183762;23;20005;-72
2023/09/17 03:07:58;;;;;;;28.65;17.60;;;;;;;16.08;100.00;101053.47;6184276;23;20492;-72
2023/09/17 03:10:24;;;;;;;28.42;18.52;;;;;;;16.03;100.00;101054.88;6184790;23;20012;-72
2023/09/17 03:12:49;;;;;;;28.17;18.77;;;;;;;16.00;100.00;101050.63;6181698;23;20009;-72
2023/09/17 03:15:15;;;;;;;28.60;19.25;;;;;;;15.96;100.00;101046.50;6183874;23;20627;-72
2023/09/17 03:17:41;;;;;;;27.10;17.70;;;;;;;15.92;100.00;101045.06;6184095;23;20005;-72
2023/09/17 03:20:13;;;;;;;27.05;17.80;;;;;;;15.88;100.00;101054.47;6184150;23;19997;-72
2023/09/17 03:22:42;;;;;;;28.95;18.77;;;;;;;15.85;100.00;101049.34;6184283;23;20025;-72
2023/09/17 03:25:07;;;;;;;29.65;19.10;;;;;;;15.83;100.00;101054.06;6182009;23;20012;-72
2023/09/17 03:27:35;;;;;;;28.70;18.83;;;;;;;15.77;100.00;101051.84;6182420;23;20001;-72
2023/09/17 03:30:05;;;;;;;30.00;18.60;;;;;;;15.73;100.00;101052.13;6184901;23;20016;-72
2023/09/17 03:32:31;;;;;;;28.60;18.27;;;;;;;15.71;100.00;101048.72;6182035;23;20009;-72
2023/09/17 03:34:57;;;;;;;28.40;18.45;;;;;;;15.67;100.00;101050.00;6184644;23;20012;-72
2023/09/17 03:37:22;;;;;;;29.08;18.33;;;;;;;15.65;100.00;101054.72;6184458;23;20001;-72
2023/09/17 03:40:07;;;;;;;28.55;18.15;;;;;;;15.66;100.00;101061.81;6183986;23;20080;-72
2023/09/17 03:42:33;;;;;;;29.23;18.80;;;;;;;15.61;100.00;101057.81;6184717;23;20001;-72
2023/09/17 03:44:58;;;;;;;26.20;16.77;;;;;;;15.58;100.00;101061.69;6185986;23;20100;-72
2023/09/17 03:47:23;;;;;;;29.13;17.90;;;;;;;15.59;100.00;101052.53;6185540;23;20428;-72
2023/09/17 03:49:48;;;;;;;27.33;17.95;;;;;;;15.57;100.00;101051.00;6183815;23;20009;-72
2023/09/17 03:52:14;;;;;;;32.45;18.50;;;;;;;15.57;100.00;101048.28;6184807;23;20319;-72
2023/09/17 03:54:39;;;;;;;28.80;20.05;;;;;;;15.56;100.00;101052.84;6185516;23;20004;-72
2023/09/17 03:57:04;;;;;;;28.60;19.77;;;;;;;15.55;100.00;101062.81;6184676;23;20005;-71
2023/09/17 03:59:30;;;;;;;28.27;18.38;;;;;;;15.54;100.00;101052.13;6185979;23;20075;-72
2023/09/17 04:01:55;;;;;;;30.15;20.23;;;;;;;15.53;100.00;101058.53;6188500;23;20516;-72
2023/09/17 04:04:21;;;;;;;28.58;18.90;;;;;;;15.51;100.00;101055.97;6188290;23;20005;-72
2023/09/17 04:06:46;;;;;;;28.20;19.23;;;;;;;15.51;100.00;101060.53;6185224;23;20005;-72
2023/09/17 04:09:13;;;;;;;29.60;19.88;;;;;;;15.50;100.00;101053.41;6187233;23;20435;-73
2023/09/17 04:11:38;;;;;;;29.63;19.20;;;;;;;15.50;100.00;101054.25;6184941;23;20017;-73
2023/09/17 04:14:06;;;;;;;32.35;20.88;;;;;;;15.50;100.00;101047.97;6183693;23;20012;-73
2023/09/17 04:16:32;;;;;;;29.13;19.15;;;;;;;15.49;100.00;101057.97;6185152;23;20011;-73
2023/09/17 04:18:57;;;;;;;29.60;19.08;;;;;;;15.48;100.00;101047.28;6184806;23;20069;-73
2023/09/17 04:21:22;;;;;;;29.27;19.42;;;;;;;15.46;100.00;101049.25;6185762;23;20427;-73
2023/09/17 04:23:48;;;;;;;29.20;19.15;;;;;;;15.46;100.00;101046.53;6182165;23;20005;-73
2023/09/17 04:26:13;;;;;;;31.58;22.10;;;;;;;15.46;100.00;101049.25;6184941;23;20370;-73
2023/09/17 04:28:38;;;;;;;31.67;21.17;;;;;;;15.46;100.00;101038.41;6184496;23;20080;-73
2023/09/17 04:31:04;;;;;;;27.20;20.02;;;;;;;15.47;100.00;101042.84;6184977;23;20031;-73
2023/09/17 04:33:29;;;;;;;31.17;22.30;;;;;;;15.47;100.00;101045.56;6182152;23;20084;-73
2023/09/17 04:35:56;;;;;;;29.70;21.08;;;;;;;15.46;100.00;101039.28;6185248;23;20398;-73
2023/09/17 04:38:21;;;;;;;29.38;20.80;;;;;;;15.45;100.00;101045.69;6185272;23;20012;-73
2023/09/17 04:40:47;;;;;;;35.65;21.08;;;;;;;15.44;100.00;101048.53;6184594;23;19997;-73
2023/09/17 04:43:12;;;;;;;29.45;20.33;;;;;;;15.44;100.00;101043.97;6184526;23;20067;-73
2023/09/17 04:45:38;;;;;;;30.30;20.35;;;;;;;15.46;100.00;101042.00;6185323;23;20005;-73
2023/09/17 04:48:04;;;;;;;30.20;21.10;;;;;;;15.47;100.00;101040.97;6184856;23;20004;-73
2023/09/17 04:50:30;;;;;;;30.13;21.30;;;;;;;15.46;100.00;101044.72;6184480;23;20060;-73
2023/09/17 04:52:56;;;;;;;30.10;21.15;;;;;;;15.46;100.00;101039.28;6184007;23;20016;-73
2023/09/17 04:55:22;;;;;;;30.75;21.35;;;;;;;15.45;100.00;101034.84;6181986;23;20072;-73
2023/09/17 04:57:47;;;;;;;31.45;21.85;;;;;;;15.45;100.00;101034.00;6183270;23;20120;-73
2023/09/17 05:00:13;;;;;;;31.08;22.52;;;;;;;15.43;100.00;101041.41;6183852;23;20001;-73
2023/09/17 05:02:39;;;;;;;31.42;21.05;;;;;;;15.43;100.00;101041.41;6183835;23;20005;-73
2023/09/17 05:05:09;;;;;;;31.67;22.90;;;;;;;15.43;100.00;101036.00;6184390;23;20009;-73
2023/09/17 05:07:37;;;;;;;34.88;21.88;;;;;;;15.45;100.00;101039.44;6184121;23;20338;-73
2023/09/17 05:10:03;;;;;;;31.83;21.98;;;;;;;15.45;100.00;101039.44;6182063;23;20088;-72
2023/09/17 05:12:28;;;;;;;33.22;23.40;;;;;;;15.46;100.00;101047.41;6184464;23;20712;-73
2023/09/17 05:14:53;;;;;;;30.92;21.85;;;;;;;15.45;100.00;101042.13;6184086;23;20005;-73
2023/09/17 05:17:18;;;;;;;31.38;22.25;;;;;;;15.48;100.00;101052.69;6182913;23;20044;-73
2023/09/17 05:19:44;;;;;;;31.08;21.90;;;;;;;15.48;100.00;101048.13;6199485;23;20061;-71
2023/09/17 05:22:09;;;;;;;31.48;21.83;;;;;;;15.47;100.00;101049.09;6201863;23;20077;-71
2023/09/17 05:24:34;;;;;;;31.20;22.02;;;;;;;15.46;100.00;101044.72;6202788;23;20049;-71
2023/09/17 05:27:00;;;;;;;31.88;21.58;;;;;;;15.45;100.00;101042.13;6203055;23;20005;-71
2023/09/17 05:29:25;;;;;;;32.63;22.05;;;;;;;15.47;100.00;101049.09;6202452;23;20005;-71
2023/09/17 05:31:50;;;;;;;32.42;21.95;;;;;;;15.47;100.00;101056.38;6201517;23;19997;-71
2023/09/17 05:34:15;;;;;;;32.88;23.42;;;;;;;15.46;100.00;101052.84;6199675;23;20013;-71
2023/09/17 05:36:41;;;;;;;35.33;23.13;;;;;;;15.49;100.00;101048.97;6201117;23;20011;-71
2023/09/17 05:39:08;;;;;;;31.60;22.98;;;;;;;15.50;100.00;101053.41;6196463;23;20012;-72
2023/09/17 05:41:33;;;;;;;32.92;23.40;;;;;;;15.49;100.00;101047.13;6187192;23;20001;-74
2023/09/17 05:44:00;;;;;;;32.72;23.20;;;;;;;15.49;100.00;101054.38;6188955;23;20019;-71
2023/09/17 05:46:26;;;;;;;30.45;21.98;;;;;;;15.50;100.00;101053.41;6188970;23;20346;-71
2023/09/17 05:48:51;;;;;;;30.60;22.45;;;;;;;15.51;100.00;101057.81;6187020;23;20000;-72
2023/09/17 05:51:16;;;;;;;32.88;24.05;;;;;;;15.51;100.00;101055.13;6184387;23;20367;-72
2023/09/17 05:53:42;;;;;;;30.70;21.60;;;;;;;15.49;100.00;101046.25;6186265;23;20009;-72
2023/09/17 05:56:07;;;;;;;31.63;23.35;;;;;;;15.52;100.00;101051.38;6185803;23;20001;-71
2023/09/17 05:58:33;;;;;;;33.13;24.10;;;;;;;15.52;100.00;101046.84;6188092;23;20056;-72
2023/09/17 06:00:59;;;;;;;32.25;23.23;;;;;;;15.53;100.00;101042.28;6189903;23;20005;-72
2023/09/17 06:03:24;;;;;;;31.95;23.27;;;;;;;15.53;100.00;101043.16;6191601;23;20622;-74
2023/09/17 06:05:49;;;;;;;32.20;22.63;;;;;;;15.54;100.00;101044.00;6196950;23;20008;-72
2023/09/17 06:08:15;;;;;;;32.58;23.55;;;;;;;15.56;100.00;101050.13;6195576;23;20031;-72
2023/09/17 06:10:40;;;;;;;34.03;24.52;;;;;;;15.56;100.00;101047.41;6195520;23;20012;-72
2023/09/17 06:13:06;;;;;;;32.55;22.83;;;;;;;15.57;100.00;101053.72;6195375;23;20001;-72
2023/09/17 06:15:32;;;;;;;34.92;24.27;;;;;;;15.58;100.00;101055.41;6196185;23;20005;-72
2023/09/17 06:17:57;;;;;;;33.50;23.48;;;;;;;15.58;100.00;101053.56;6196001;23;20064;-72
2023/09/17 06:20:22;;;;;;;36.85;23.90;;;;;;;15.58;100.00;101050.84;6198530;23;19997;-72
2023/09/17 06:22:48;;;;;;;32.45;23.38;;;;;;;15.59;100.00;101049.84;6197820;23;20005;-72
2023/09/17 06:25:15;;;;;;;34.20;24.02;;;;;;;15.60;100.00;101053.41;6198321;23;20016;-72
2023/09/17 06:27:40;;;;;;;33.88;24.80;;;;;;;15.61;100.00;101050.56;6199727;23;20016;-72
2023/09/17 06:30:06;;;;;;;32.65;22.42;;;;;;;15.63;100.00;101051.28;6184054;23;20001;-72
2023/09/17 06:32:32;;;;;;;33.53;26.00;;;;;;;15.65;100.00;101052.00;6181353;23;20394;-72
2023/09/17 06:34:57;;;;;;;31.45;22.67;;;;;;;15.65;100.00;101046.59;6182884;23;20005;-72
2023/09/17 06:37:23;;;;;;;34.88;24.73;;;;;;;15.66;100.00;101053.69;6182323;23;20013;-72
2023/09/17 06:39:48;;;;;;;35.67;23.98;;;;;;;15.66;100.00;101059.13;6181204;23;20550;-72
2023/09/17 06:42:14;;;;;;;35.67;25.38;;;;;;;15.67;100.00;101049.16;6183584;23;20012;-72
2023/09/17 06:44:39;;;;;;;37.13;24.20;;;;;;;15.66;100.00;101042.84;6180585;23;20020;-72
2023/09/17 06:47:04;;;;;;;33.03;23.35;;;;;;;15.67;100.00;101047.28;6182778;23;20048;-72
2023/09/17 06:49:30;;;;;;;30.35;20.65;;;;;;;15.68;100.00;101049.00;6180993;23;20039;-72
2023/09/17 06:51:55;;;;;;;34.45;23.27;;;;;;;15.70;100.00;101047.00;6183284;23;20428;-72
2023/09/17 06:54:21;;;;;;;32.47;24.38;;;;;;;15.73;100.00;101049.44;6181731;23;20013;-72
2023/09/17 06:56:47;;;;;;;33.17;23.27;;;;;;;15.75;100.00;101043.03;6182110;23;20333;-72
2023/09/17 06:59:13;;;;;;;33.90;25.50;;;;;;;15.78;100.00;101045.44;6180935;23;20004;-72
2023/09/17 07:01:39;;;;;;;35.10;26.00;;;;;;;15.80;100.00;101047.06;6180256;23;20008;-72
2023/09/17 07:04:05;;;;;;;33.92;24.63;;;;;;;15.82;100.00;101049.63;6183278;23;20075;-72
2023/09/17 07:06:30;;;;;;;34.10;25.55;;;;;;;15.81;100.00;101051.50;6181003;23;20083;-72
2023/09/17 07:08:57;;;;;;;35.03;25.83;;;;;;;15.85;100.00;101055.59;6182240;23;20007;-72
2023/09/17 07:11:22;;;;;;;35.85;26.92;;;;;;;15.87;100.00;101058.16;6180707;23;20024;-72
2023/09/17 07:13:48;;;;;;;30.95;22.40;;;;;;;15.86;100.00;101054.63;6182850;23;20275;-72
2023/09/17 07:16:15;;;;;;;35.75;26.88;;;;;;;15.88;100.00;101051.75;6182853;23;20063;-72
2023/09/17 07:18:41;;;;;;;37.63;28.13;;;;;;;15.91;100.00;101046.06;6181962;23;20004;-72
2023/09/17 07:21:06;;;;;;;34.42;25.08;;;;;;;15.92;100.00;101044.22;6183406;23;20005;-72
2023/09/17 07:23:32;;;;;;;33.72;25.45;;;;;;;15.95;100.00;101042.06;6182392;23;20339;-72
2023/09/17 07:25:58;;;;;;;34.90;25.60;;;;;;;15.96;100.00;101035.66;6182374;23;20015;-72
2023/09/17 07:28:23;;;;;;;38.08;27.50;;;;;;;16.01;100.00;101025.22;6181569;23;20104;-72
2023/09/17 07:30:55;;;;;;;35.30;26.92;;;;;;;16.05;100.00;101037.50;6181267;23;20011;-72
2023/09/17 07:33:20;;;;;;;37.38;28.15;;;;;;;16.12;100.00;101036.91;6179304;23;20009;-72
2023/09/17 07:35:46;;;;;;;35.53;27.92;;;;;;;16.17;100.00;101034.63;6182019;23;20400;-72
2023/09/17 07:38:11;;;;;;;37.55;28.27;;;;;;;16.21;100.00;101033.34;6183243;23;20067;-72
2023/09/17 07:40:36;;;;;;;37.78;28.98;;;;;;;16.25;100.00;101042.88;6181653;23;20032;-72
2023/09/17 07:43:03;;;;;;;38.15;28.60;;;;;;;16.27;100.00;101040.03;6185839;23;20005;-72
2023/09/17 07:45:28;;;;;;;35.78;28.45;;;;;;;16.30;100.00;101040.59;6184516;23;20439;-72
2023/09/17 07:47:54;;;;;;;36.53;28.60;;;;;;;16.32;100.00;101043.16;6184424;23;20032;-72
2023/09/17 07:50:19;;;;;;;38.45;29.88;;;;;;;16.32;100.00;101038.59;6184313;23;20005;-72
2023/09/17 07:52:45;;;;;;;41.55;30.63;;;;;;;16.34;100.00;101042.03;6184157;23;20001;-72
2023/09/17 07:55:10;;;;;;;36.65;29.60;;;;;;;16.36;100.00;101042.72;6183731;23;20032;-72
2023/09/17 07:57:35;;;;;;;39.25;30.20;;;;;;;16.37;100.00;101047.16;6182916;23;20048;-72
2023/09/17 08:00:01;;;;;;;38.05;28.67;;;;;;;16.39;100.00;101047.84;6185497;23;20004;-72
2023/09/17 08:02:26;;;;;;;39.95;31.02;;;;;;;16.39;100.00;101058.72;6185334;23;20011;-72
2023/09/17 08:04:51;;;;;;;38.75;28.80;;;;;;;16.41;100.00;101055.84;6184028;23;20386;-73
2023/09/17 08:07:17;;;;;;;41.95;30.55;;;;;;;16.41;100.00;101059.44;6184595;23;20334;-73
2023/09/17 08:09:43;;;;;;;40.63;29.42;;;;;;;16.42;100.00;101060.28;6182804;23;20050;-73
2023/09/17 08:12:09;;;;;;;40.58;29.77;;;;;;;16.46;100.00;101066.25;6184313;23;20435;-73
2023/09/17 08:14:35;;;;;;;44.08;31.88;;;;;;;16.48;100.00;101062.41;6182586;23;20462;-73
2023/09/17 08:17:04;;;;;;;38.03;29.17;;;;;;;16.51;100.00;101072.13;6185488;23;20043;-73
2023/09/17 08:19:30;;;;;;;43.83;32.57;;;;;;;16.53;100.00;101062.84;6183940;23;20372;-72
2023/09/17 08:21:56;;;;;;;40.75;31.90;;;;;;;16.57;100.00;101057.97;6182685;23;20004;-73
2023/09/17 08:24:22;;;;;;;44.13;32.95;;;;;;;16.59;100.00;101067.66;6183786;23;20016;-72
2023/09/17 08:26:48;;;;;;;41.78;31.35;;;;;;;16.57;100.00;101071.53;6183845;23;20431;-73
2023/09/17 08:29:13;;;;;;;43.50;32.90;;;;;;;16.59;100.00;101067.66;6182668;23;20012;-73
2023/09/17 08:31:38;;;;;;;45.83;32.42;;;;;;;16.63;100.00;101073.66;6184146;23;20085;-73
2023/09/17 08:34:04;;;;;;;42.80;32.60;;;;;;;16.64;100.00;101075.38;6182456;23;20446;-73
2023/09/17 08:36:30;;;;;;;44.92;33.55;;;;;;;16.66;100.00;101070.66;6184878;23;20075;-73
2023/09/17 08:38:55;;;;;;;42.20;33.72;;;;;;;16.70;100.00;101060.34;6182003;23;20475;-73
2023/09/17 08:41:24;;;;;;;42.35;34.30;;;;;;;16.71;100.00;101064.78;6180928;23;20015;-73
2023/09/17 08:43:52;;;;;;;45.08;36.65;;;;;;;16.72;100.00;101061.94;6183497;23;20066;-73
2023/09/17 08:46:22;;;;;;;47.92;38.20;;;;;;;16.74;100.00;101064.50;6183089;23;20708;-73
2023/09/17 08:48:47;;;;;;;;;;;;;;;16.77;100.00;101070.47;6184952;23;20005;-72
2023/09/17 08:51:16;;;;;;;48.92;37.85;;;;;;;16.78;100.00;101069.47;6183534;23;19912;-72
2023/09/17 08:53:56;;;;;;;52.05;39.13;;;;;;;16.83;100.00;101082.59;6184276;23;20001;-72
2023/09/17 08:56:22;;;;;;;47.30;38.38;;;;;;;16.86;100.00;101071.44;6183901;23;20005;-72
2023/09/17 08:58:52;;;;;;;46.50;36.45;;;;;;;16.90;100.00;101085.63;6183041;23;20020;-72
2023/09/17 09:01:22;;;;;;;45.53;36.10;;;;;;;16.93;100.00;101085.31;6182300;23;20013;-72
2023/09/17 09:03:49;;;;;;;46.55;35.58;;;;;;;16.96;100.00;101093.16;6184496;23;20043;-73
2023/09/17 09:06:16;;;;;;;48.38;35.80;;;;;;;16.95;100.00;101088.72;6183933;23;20013;-73
2023/09/17 09:08:42;;;;;;;46.53;34.67;;;;;;;16.97;100.00;101092.19;6184364;23;20005;-73
2023/09/17 09:11:08;;;;;;;48.83;36.30;;;;;;;17.00;100.00;101091.88;6182977;23;20068;-72
2023/09/17 09:13:36;;;;;;;48.17;35.00;;;;;;;17.03;100.00;101105.16;6183838;23;20008;-72
2023/09/17 09:16:02;;;;;;;51.67;36.55;;;;;;;17.04;100.00;101117.72;6181402;23;20004;-73
2023/09/17 09:18:29;;;;;;;52.00;36.08;;;;;;;17.05;100.00;101108.56;6180738;23;20012;-72
2023/09/17 09:20:54;;;;;;;48.70;35.70;;;;;;;17.06;100.00;101104.00;6182103;23;20008;-72
2023/09/17 09:23:21;;;;;;;47.65;36.88;;;;;;;17.09;100.00;101104.53;6182375;23;20004;-72
2023/09/17 09:25:46;;;;;;;49.72;37.97;;;;;;;17.09;100.00;101104.53;6182899;23;20051;-72
2023/09/17 09:28:12;;;;;;;48.38;36.50;;;;;;;17.11;100.00;101102.53;6183212;23;20009;-73
2023/09/17 09:30:37;;;;;;;47.08;36.17;;;;;;;17.13;100.00;101102.41;6178507;23;20008;-73
2023/09/17 09:33:04;;;;;;;51.53;36.83;;;;;;;17.14;100.00;101092.38;6181158;23;20053;-73
2023/09/17 09:35:30;;;;;;;45.53;35.17;;;;;;;17.17;100.00;101092.09;6182241;23;20028;-72
2023/09/17 09:37:56;;;;;;;48.72;35.60;;;;;;;17.18;100.00;101083.78;6181774;23;20410;-73
2023/09/17 09:40:24;;;;;;;49.47;35.95;;;;;;;17.19;100.00;101084.63;6183959;23;20683;-73
2023/09/17 09:42:49;;;;;;;50.00;35.45;;;;;;;17.21;100.00;101079.91;6181586;23;20084;-73
2023/09/17 09:45:15;;;;;;;48.42;36.13;;;;;;;17.22;100.00;101078.88;6184281;23;20521;-73
2023/09/17 09:47:46;;;;;;;48.20;35.70;;;;;;;17.23;100.00;101083.31;6183066;23;20012;-73
2023/09/17 09:50:24;;;;;;;51.42;35.00;;;;;;;17.24;100.00;101083.19;6184752;23;20555;-72
2023/09/17 09:52:49;;;;;;;52.88;36.70;;;;;;;17.24;100.00;101088.59;6185063;23;20009;-73
2023/09/17 09:55:15;;;;;;;52.03;36.72;;;;;;;17.27;100.00;101088.31;6184388;23;20039;-73
2023/09/17 09:57:42;;;;;;;48.60;35.28;;;;;;;17.31;100.00;101080.72;6183166;23;20317;-72
2023/09/17 10:00:14;;;;;;;48.10;35.90;;;;;;;17.34;100.00;101083.13;6183694;23;20001;-72
2023/09/17 10:02:40;;;;;;;47.80;34.92;;;;;;;17.38;100.00;101079.13;6180989;23;20083;-73
2023/09/17 10:05:07;;;;;;;47.85;35.78;;;;;;;17.40;100.00;101082.53;6183788;23;20004;-73
2023/09/17 10:07:33;;;;;;;57.33;36.90;;;;;;;17.42;100.00;101080.53;6183576;23;20034;-72
2023/09/17 10:10:00;;;;;;;49.58;37.78;;;;;;;17.48;100.00;101079.03;6183757;23;20017;-73
2023/09/17 10:12:27;;;;;;;51.78;36.72;;;;;;;17.52;100.00;101088.59;6183670;23;20446;-73
2023/09/17 10:14:52;;;;;;;52.85;34.65;;;;;;;17.56;100.00;101072.88;6183990;23;20016;-72
2023/09/17 10:17:18;;;;;;;52.50;35.63;;;;;;;17.62;100.00;101069.53;6183633;23;20005;-73
2023/09/17 10:19:46;;;;;;;47.85;36.40;;;;;;;17.65;100.00;101063.78;6182973;23;20020;-72
2023/09/17 10:22:13;;;;;;;49.30;34.60;;;;;;;17.72;100.00;101067.59;6183209;23;20111;-72
2023/09/17 10:24:40;;;;;;;55.75;35.17;;;;;;;17.78;100.00;101063.41;6183920;23;20005;-72
2023/09/17 10:27:06;;;;;;;52.38;36.05;;;;;;;17.84;100.00;101061.94;6186057;23;20070;-73
2023/09/17 10:29:34;;;;;;;50.97;35.45;;;;;;;17.91;100.00;101063.06;6181580;23;20080;-73
2023/09/17 10:32:02;;;;;;;50.20;34.22;;;;;;;17.97;100.00;101067.88;6182548;23;20408;-73
2023/09/17 10:34:31;;;;;;;44.78;34.55;;;;;;;17.99;100.00;101065.84;6184188;23;20043;-73
2023/09/17 10:36:58;;;;;;;45.60;33.30;;;;;;;18.06;100.00;101071.53;6183598;23;20040;-73
2023/09/17 10:39:27;;;;;;;49.78;35.20;;;;;;;18.09;100.00;101063.91;6183856;23;20008;-72
2023/09/17 10:41:55;;;;;;;49.85;34.03;;;;;;;18.14;100.00;101066.13;6183497;23;19997;-73
2023/09/17 10:44:21;;;;;;;49.58;33.80;;;;;;;18.17;100.00;101063.13;6184134;23;20132;-73
2023/09/17 10:46:48;;;;;;;48.08;34.78;;;;;;;18.19;100.00;101055.66;6181814;23;20016;-73
2023/09/17 10:49:16;;;;;;;50.45;33.25;;;;;;;18.24;100.00;101058.75;6184082;23;20001;-73
2023/09/17 10:51:44;;;;;;;47.67;34.25;;;;;;;18.29;100.00;101061.00;6183559;23;20304;-73
2023/09/17 10:54:10;;;;;;;45.90;35.05;;;;;;;18.33;100.00;101055.09;6181712;23;20015;-73
2023/09/17 10:56:36;;;;;;;45.83;34.03;;;;;;;18.39;100.00;101050.88;6181837;23;20012;-73
2023/09/17 10:59:04;;;;;;;48.95;34.38;;;;;;;18.47;100.00;101056.38;6184316;23;20331;-73